Latest Weather Observations for Frankston

IDV60901

Issued at 5:25 pm EST Tuesday 22 July 2014 (issued every 10 minutes, with the page automatically refreshed every 10 minutes)

About weather observations | Map of Melbourne area stations | Latest observations for Melbourne area | Other Formats
Station Details ID: 086371 Name: FRANKSTON AWS Lat: -38.15 Lon: 145.12 Height: 6.0 m
Data from the previous 72 hours. | See also: Recent months at Frankston
Date/Time
EST
Tmp

°C
App
Tmp
°C
Dew
Point
°C
Rel
Hum
%
Delta-T

°C
Wind Press
QNH
hPa
Press
MSL
hPa
Rain
since
9 am
mm
Dir
 
Spd
km/h
Gust
km/h
Spd
kts
Gust
kts
22/05:00pm 7.0 6.3 6.9 99 0.0 CALM 0 0 0 0 - - -
22/04:30pm 6.2 5.3 6.1 99 0.0 CALM 0 0 0 0 - - -
22/04:00pm 6.3 5.4 6.2 99 0.0 CALM 0 0 0 0 - - -
22/03:30pm 6.5 5.7 6.4 99 0.0 CALM 0 0 0 0 - - -
22/03:00pm 6.5 5.7 6.4 99 0.0 CALM 0 0 0 0 - - -
22/02:30pm 6.5 5.7 6.4 99 0.0 WSW 0 0 0 0 - - -
22/02:00pm 6.3 5.4 6.2 99 0.0 CALM 0 0 0 0 - - -
22/01:30pm 6.3 5.4 6.2 99 0.0 W 0 4 0 2 - - -
22/01:00pm 6.0 4.7 5.9 99 0.0 NNW 2 4 1 2 - - -
22/12:30pm 5.7 3.9 5.6 99 0.0 WNW 4 7 2 4 - - -
22/12:00pm 5.7 4.3 5.6 99 0.0 NNW 2 4 1 2 - - -
22/11:30am 5.3 4.2 5.2 99 0.0 CALM 0 6 0 3 - - -
22/11:00am 5.1 4.0 5.0 99 0.0 CALM 0 0 0 0 - - -
22/10:30am 5.3 3.8 5.2 99 0.0 NE 2 6 1 3 - - -
22/10:00am 4.7 3.5 4.6 99 0.0 CALM 0 6 0 3 - - -
22/09:30am 4.4 2.8 4.3 99 0.0 SE 2 4 1 2 - - -
22/09:00am 4.0 2.2 3.7 98 0.1 E 2 6 1 3 - - -
22/08:30am 3.6 1.8 3.3 98 0.1 NE 2 6 1 3 - - -
22/08:00am 3.5 2.0 3.2 98 0.1 CALM 0 2 0 1 - - -
22/07:30am 3.3 1.0 3.0 98 0.1 E 4 4 2 2 - - -
22/07:00am 3.5 1.3 3.1 97 0.2 E 4 7 2 4 - - -
22/06:30am 3.2 0.5 2.8 97 0.2 E 6 7 3 4 - - -
22/06:00am 3.8 2.0 3.4 97 0.2 ENE 2 4 1 2 - - -
22/05:30am 3.8 1.6 3.4 97 0.2 E 4 6 2 3 - - -
22/05:00am 4.0 1.8 3.4 96 0.2 ENE 4 7 2 4 - - -
22/04:30am 4.5 2.0 3.9 96 0.3 E 6 9 3 5 - - -
22/04:00am 5.0 2.4 4.4 96 0.3 E 7 9 4 5 - - -
22/03:30am 5.0 3.4 4.4 96 0.3 ESE 2 4 1 2 - - -
22/03:00am 4.9 2.3 4.2 95 0.3 SE 7 9 4 5 - - -
22/02:30am 5.1 3.8 4.2 94 0.4 CALM 0 0 0 0 - - -
22/02:00am 5.8 4.7 4.9 94 0.4 CALM 0 0 0 0 - - -
22/01:30am 5.9 4.8 4.9 93 0.4 ESE 0 0 0 0 - - -
22/01:00am 6.5 5.4 5.3 92 0.5 CALM 0 0 0 0 - - -
22/12:30am 7.3 6.4 5.9 91 0.6 CALM 0 0 0 0 - - -
22/12:00am 7.9 7.1 6.5 91 0.6 NE 0 0 0 0 - - -
 
Date/Time
EST
Tmp

°C
App
Tmp
°C
Dew
Point
°C
Rel
Hum
%
Delta-T

°C
Wind Press
QNH
hPa
Press
MSL
hPa
Rain
since
9 am
mm
Dir
 
Spd
km/h
Gust
km/h
Spd
kts
Gust
kts
21/11:30pm 7.7 6.1 6.3 91 0.6 SSE 4 7 2 4 - - -
21/11:00pm 8.1 6.2 6.7 91 0.6 SSE 6 9 3 5 - - -
21/10:30pm 8.1 7.0 6.7 91 0.6 SSE 2 6 1 3 - - -
21/10:00pm 7.2 5.8 5.7 90 0.7 E 2 4 1 2 - - -
21/09:30pm 8.1 6.8 6.1 87 0.9 NE 2 2 1 1 - - -
21/09:00pm 8.4 7.5 6.2 86 1.0 CALM 0 0 0 0 - - -
21/08:30pm 8.7 7.0 6.0 83 1.2 ESE 4 4 2 2 - - -
21/08:00pm 9.0 7.7 5.9 81 1.4 ESE 2 6 1 3 - - -
21/07:30pm 9.3 8.1 6.4 82 1.3 SE 2 4 1 2 - - -
21/07:00pm 9.6 8.2 7.4 86 1.0 SE 4 6 2 3 - - -
21/06:30pm 10.0 9.1 7.8 86 1.1 SE 2 4 1 2 - - -
21/06:00pm 10.4 9.2 8.0 85 1.2 SE 4 6 2 3 - - -
21/05:30pm 10.6 9.8 8.2 85 1.2 SW 2 4 1 2 - - -
21/05:00pm 10.3 8.6 7.7 84 1.2 WSW 6 7 3 4 - - -
21/04:30pm 10.4 8.7 7.6 83 1.3 WSW 6 7 3 4 - - -
21/04:00pm 10.1 8.1 7.2 82 1.4 W 7 7 4 4 - - -
21/03:30pm 9.9 7.9 7.0 82 1.4 WSW 7 7 4 4 - - -
21/03:00pm 9.5 7.5 7.3 86 1.0 WSW 7 9 4 5 - - -
21/02:30pm 9.3 7.3 7.1 86 1.0 WSW 7 9 4 5 - - -
21/02:00pm 9.2 7.2 7.0 86 1.0 WSW 7 9 4 5 - - -
21/01:30pm 8.9 6.8 6.7 86 1.0 W 7 7 4 4 - - -
21/01:00pm 8.7 6.8 6.7 87 0.9 WSW 6 7 3 4 - - -
21/12:30pm 8.5 6.6 6.6 88 0.9 W 6 6 3 3 - - -
21/12:00pm 8.3 7.5 6.6 89 0.8 CALM 0 2 0 1 - - -
21/11:30am 8.0 7.3 6.8 92 0.6 CALM 0 0 0 0 - - -
21/11:00am 7.9 6.9 7.3 96 0.3 NNW 2 4 1 2 - - -
21/10:30am 7.6 6.2 7.3 98 0.1 N 4 6 2 3 - - -
21/10:00am 7.5 6.1 7.2 98 0.1 NNE 4 6 2 3 - - -
21/09:30am 7.3 6.6 7.0 98 0.1 CALM 0 0 0 0 - - -
21/09:00am 6.9 5.7 6.6 98 0.1 NNE 2 6 1 3 - - -
21/08:30am 6.9 5.4 6.6 98 0.1 ESE 4 6 2 3 - - -
21/08:00am 6.7 5.1 6.3 97 0.2 ENE 4 6 2 3 - - -
21/07:30am 7.0 5.5 6.6 97 0.2 ESE 4 6 2 3 - - -
21/07:00am 6.8 5.6 6.4 97 0.2 ENE 2 4 1 2 - - -
21/06:30am 6.7 5.0 6.1 96 0.3 E 4 4 2 2 - - -
21/06:00am 6.7 5.4 6.1 96 0.3 ENE 2 4 1 2 - - -
21/05:30am 6.6 4.9 6.0 96 0.3 ESE 4 6 2 3 - - -
21/05:00am 6.4 4.3 5.8 96 0.3 ESE 6 7 3 4 - - -
21/04:30am 6.2 4.0 5.5 95 0.3 E 6 7 3 4 - - -
21/04:00am 6.0 4.2 5.3 95 0.3 E 4 7 2 4 - - -
21/03:30am 6.0 3.8 5.1 94 0.4 ESE 6 7 3 4 - - -
21/03:00am 6.3 4.5 5.3 93 0.4 E 4 4 2 2 - - -
21/02:30am 6.9 5.9 5.8 93 0.5 CALM 0 4 0 2 - - -
21/02:00am 7.0 6.0 5.8 92 0.5 CALM 0 0 0 0 - - -
21/01:30am 6.4 5.3 5.2 92 0.5 CALM 0 2 0 1 - - -
21/01:00am 7.0 5.2 5.6 91 0.6 E 4 9 2 5 - - -
21/12:30am 7.3 6.3 5.8 90 0.7 CALM 0 0 0 0 - - -
21/12:00am 7.2 6.2 5.7 90 0.7 CALM 0 0 0 0 - - -
 
Date/Time
EST
Tmp

°C
App
Tmp
°C
Dew
Point
°C
Rel
Hum
%
Delta-T

°C
Wind Press
QNH
hPa
Press
MSL
hPa
Rain
since
9 am
mm
Dir
 
Spd
km/h
Gust
km/h
Spd
kts
Gust
kts
20/11:30pm 8.3 7.5 6.6 89 0.8 CALM 0 0 0 0 - - -
20/11:00pm 8.7 8.0 7.0 89 0.8 CALM 0 0 0 0 - - -
20/10:30pm 8.1 7.3 6.4 89 0.8 CALM 0 0 0 0 - - -
20/10:00pm 8.3 7.5 6.6 89 0.8 CALM 0 0 0 0 - - -
20/09:30pm 8.4 7.6 6.7 89 0.8 CALM 0 0 0 0 - - -
20/09:00pm 8.3 7.5 6.4 88 0.9 CALM 0 0 0 0 - - -
20/08:30pm 8.9 8.1 6.7 86 1.0 CALM 0 0 0 0 - - -
20/08:00pm 9.8 9.2 7.6 86 1.0 CALM 0 0 0 0 - - -
20/07:30pm 9.7 9.1 7.5 86 1.0 CALM 0 0 0 0 - - -
20/07:00pm 9.9 9.4 7.8 87 1.0 CALM 0 0 0 0 - - -
20/06:30pm 9.5 8.9 7.3 86 1.0 CALM 0 0 0 0 - - -
20/06:00pm 10.0 9.4 7.6 85 1.1 CALM 0 0 0 0 - - -
20/05:30pm 10.2 9.8 8.1 87 1.0 CALM 0 0 0 0 - - -
20/05:00pm 10.2 9.1 8.5 89 0.8 WSW 4 6 2 3 - - -
20/04:30pm 10.0 8.9 8.3 89 0.8 W 4 6 2 3 - - -
20/04:00pm 10.1 8.9 8.0 87 1.0 WNW 4 6 2 3 - - -
20/03:30pm 10.0 8.2 8.1 88 0.9 W 7 7 4 4 - - -
20/03:00pm 9.9 8.3 8.0 88 0.9 W 6 7 3 4 - - -
20/02:30pm 9.9 8.3 8.2 89 0.8 WNW 6 6 3 3 - - -
20/02:00pm 9.7 7.9 8.1 90 0.8 NW 7 9 4 5 - - -
20/01:30pm 9.6 7.5 8.2 91 0.7 NW 9 9 5 5 - - -
20/01:00pm 9.4 6.9 8.2 92 0.6 NW 11 11 6 6 - - -
20/12:30pm 9.3 7.2 8.2 93 0.5 NW 9 11 5 6 - - -
20/12:00pm 9.2 7.1 8.3 94 0.4 NW 9 11 5 6 - - -
20/11:30am 9.2 7.5 8.3 94 0.4 N 7 9 4 5 - - -
20/11:00am 9.1 7.0 8.2 94 0.4 NNW 9 11 5 6 - - -
20/10:30am 9.4 7.4 8.6 95 0.4 NNW 9 13 5 7 - - -
20/10:00am 9.5 7.5 8.7 95 0.4 NNW 9 13 5 7 - - -
20/09:30am 9.3 9.0 8.7 96 0.3 CALM 0 0 0 0 - - -
20/09:00am 9.1 8.8 8.5 96 0.3 CALM 0 0 0 0 - - -
20/08:30am 8.8 8.3 8.0 95 0.4 CALM 0 4 0 2 - - -
20/08:00am 8.7 7.8 7.9 95 0.4 SSW 2 6 1 3 - - -
20/07:30am 8.6 7.3 7.8 95 0.4 SW 4 7 2 4 - - -
20/07:00am 8.9 7.1 8.0 94 0.4 W 7 9 4 5 - - -
20/06:30am 9.2 7.7 8.3 94 0.4 W 6 7 3 4 - - -
20/06:00am 9.2 7.7 8.3 94 0.4 WNW 6 7 3 4 - - -
20/05:30am 9.2 7.7 8.3 94 0.4 WNW 6 7 3 4 - - -
20/05:00am 8.5 7.9 7.6 94 0.4 CALM 0 0 0 0 - - -
20/04:30am 8.3 7.7 7.4 94 0.4 CALM 0 0 0 0 - - -
20/04:00am 7.5 6.7 6.6 94 0.4 CALM 0 0 0 0 - - -
20/03:30am 7.9 7.2 7.0 94 0.4 CALM 0 0 0 0 - - -
20/03:00am 7.4 6.6 6.5 94 0.4 CALM 0 0 0 0 - - -
20/02:30am 8.2 7.6 7.3 94 0.4 CALM 0 0 0 0 - - -
20/02:00am 8.3 7.7 7.4 94 0.4 CALM 0 0 0 0 - - -
20/01:30am 8.6 8.1 7.7 94 0.4 CALM 0 0 0 0 - - -
20/01:00am 8.7 8.2 7.8 94 0.4 CALM 0 0 0 0 - - -
20/12:30am 8.9 8.4 8.0 94 0.4 CALM 0 0 0 0 - - -
20/12:00am 9.1 8.7 8.2 94 0.4 CALM 0 0 0 0 - - -
 
Date/Time
EST
Tmp

°C
App
Tmp
°C
Dew
Point
°C
Rel
Hum
%
Delta-T

°C
Wind Press
QNH
hPa
Press
MSL
hPa
Rain
since
9 am
mm
Dir
 
Spd
km/h
Gust
km/h
Spd
kts
Gust
kts
19/11:30pm 9.0 8.6 8.1 94 0.4 CALM 0 0 0 0 - - -
19/11:00pm 9.0 7.8 8.1 94 0.4 NE 4 4 2 2 - - -
19/10:30pm 9.3 8.2 8.4 94 0.4 NNE 4 4 2 2 - - -
19/10:00pm 9.4 8.7 8.5 94 0.4 N 2 4 1 2 - - -
19/09:30pm 9.4 8.3 8.5 94 0.4 N 4 6 2 3 - - -
19/09:00pm 9.4 8.3 8.5 94 0.4 NW 4 7 2 4 - - -
19/08:30pm 9.3 8.2 8.4 94 0.4 NNW 4 7 2 4 - - -
19/08:00pm 9.6 8.1 8.5 93 0.5 NW 6 6 3 3 - - -
19/07:30pm 9.7 8.0 8.5 92 0.6 W 7 7 4 4 - - -
19/07:00pm 9.8 7.7 8.4 91 0.7 WSW 9 11 5 6 - - -
19/06:30pm 10.2 8.2 8.6 90 0.8 W 9 11 5 6 - - -
19/06:00pm 10.0 7.5 8.1 88 0.9 W 11 13 6 7 - - -
19/05:30pm 10.3 7.0 7.9 85 1.2 WSW 15 17 8 9 - - -

Latest Capital City Observations: Canberra | Sydney | Melbourne | Brisbane | Adelaide | Perth | Hobart | Darwin

Other Formats:

Comma delimited format used in spreadsheet applications
http://www.bom.gov.au/fwo/IDV60901/IDV60901.94871.axf

JavaScript Object Notation format (JSON) in row-major order
http://www.bom.gov.au/fwo/IDV60901/IDV60901.94871.json